Time;durP1;ratioP1;P1;durP2;ratioP2;P2;SDS_P1;SDS_P2;PMS_P1;PMS_P2;Temp;Humidity;BMP_temperature;BMP_pressure;BME280_temperature;BME280_humidity;BME280_pressure;Samples;Min_cycle;Max_cycle;Signal;HPM_P1;HPM_P2
2023/01/06 00:00:37;;;;;;;8.10;6.83;;;;;;;;;;5032997;28;20449;-67
2023/01/06 00:03:06;;;;;;;12.03;5.57;;;;;;;;;;5033207;28;20450;-68
2023/01/06 00:05:33;;;;;;;7.87;5.70;;;;;;;;;;5032949;28;20451;-67
2023/01/06 00:08:00;;;;;;;9.93;4.73;;;;;;;;;;5034281;28;21018;-67
2023/01/06 00:10:28;;;;;;;12.03;5.33;;;;;;;;;;5036565;28;20485;-67
2023/01/06 00:12:55;;;;;;;10.23;5.00;;;;;;;;;;5036572;28;20442;-67
2023/01/06 00:15:22;;;;;;;5.90;5.20;;;;;;;;;;5036956;28;20446;-67
2023/01/06 00:17:49;;;;;;;7.10;4.77;;;;;;;;;;5036471;28;20454;-67
2023/01/06 00:20:18;;;;;;;6.50;4.33;;;;;;;;;;5036818;28;20444;-67
2023/01/06 00:22:45;;;;;;;7.37;4.70;;;;;;;;;;5037024;28;20447;-68
2023/01/06 00:25:12;;;;;;;12.73;5.43;;;;;;;;;;5036753;28;20440;-67
2023/01/06 00:27:40;;;;;;;8.33;4.70;;;;;;;;;;5036548;28;20573;-68
2023/01/06 00:30:08;;;;;;;8.77;4.20;;;;;;;;;;5037438;28;20788;-67
2023/01/06 00:32:35;;;;;;;9.07;4.80;;;;;;;;;;5036520;28;20530;-67
2023/01/06 00:35:03;;;;;;;9.90;4.30;;;;;;;;;;5036956;28;20638;-67
2023/01/06 00:37:31;;;;;;;9.97;4.43;;;;;;;;;;5036626;28;20828;-67
2023/01/06 00:39:58;;;;;;;6.87;3.90;;;;;;;;;;5036360;28;20452;-68
2023/01/06 00:42:27;;;;;;;7.97;4.43;;;;;;;;;;5035985;28;20943;-67
2023/01/06 00:44:54;;;;;;;5.70;4.53;;;;;;;;;;5036740;28;20439;-67
2023/01/06 00:47:21;;;;;;;6.73;4.50;;;;;;;;;;5036187;28;20969;-67
2023/01/06 00:49:48;;;;;;;4.97;3.97;;;;;;;;;;5036275;28;20454;-67
2023/01/06 00:52:16;;;;;;;8.40;5.30;;;;;;;;;;5036136;28;20454;-67
2023/01/06 00:54:44;;;;;;;5.80;5.30;;;;;;;;;;5035902;28;20542;-67
2023/01/06 00:57:11;;;;;;;8.70;5.00;;;;;;;;;;5036242;28;20538;-68
2023/01/06 00:59:39;;;;;;;9.90;5.53;;;;;;;;;;5036119;28;20538;-68
2023/01/06 01:02:06;;;;;;;7.70;5.10;;;;;;;;;;5036073;28;20444;-66
2023/01/06 01:04:33;;;;;;;9.70;7.10;;;;;;;;;;5035946;28;20481;-66
2023/01/06 01:07:00;;;;;;;11.23;6.67;;;;;;;;;;5035580;28;20476;-66
2023/01/06 01:09:28;;;;;;;10.70;7.13;;;;;;;;;;5035662;28;20463;-67
2023/01/06 01:12:10;;;;;;;15.33;8.77;;;;;;;;;;5035653;28;20943;-67
2023/01/06 01:14:38;;;;;;;20.97;9.60;;;;;;;;;;5035861;28;20789;-66
2023/01/06 01:17:05;;;;;;;12.13;9.83;;;;;;;;;;5035630;28;20921;-68
2023/01/06 01:19:32;;;;;;;15.07;10.80;;;;;;;;;;5034624;28;20632;-68
2023/01/06 01:22:00;;;;;;;15.80;12.10;;;;;;;;;;5035677;28;20534;-66
2023/01/06 01:24:27;;;;;;;18.60;12.33;;;;;;;;;;5035618;28;20589;-67
2023/01/06 01:26:54;;;;;;;21.00;12.30;;;;;;;;;;5035617;28;20804;-67
2023/01/06 01:29:23;;;;;;;19.17;13.70;;;;;;;;;;5035243;28;20450;-67
2023/01/06 01:31:50;;;;;;;18.93;12.57;;;;;;;;;;5035501;28;20466;-67
2023/01/06 01:34:18;;;;;;;22.13;14.77;;;;;;;;;;5035104;28;20443;-67
2023/01/06 01:36:46;;;;;;;22.73;14.80;;;;;;;;;;5035174;28;20452;-67
2023/01/06 01:39:14;;;;;;;17.40;14.10;;;;;;;;;;5034990;28;20463;-67
2023/01/06 01:41:41;;;;;;;21.70;16.07;;;;;;;;;;5035507;28;20448;-68
2023/01/06 01:44:27;;;;;;;26.60;15.50;;;;;;;;;;5034907;28;20453;-67
2023/01/06 01:46:56;;;;;;;22.43;16.67;;;;;;;;;;5035161;28;20502;-67
2023/01/06 01:49:24;;;;;;;20.30;15.17;;;;;;;;;;5035079;28;20455;-67
2023/01/06 01:51:52;;;;;;;22.53;15.33;;;;;;;;;;5034701;28;20813;-67
2023/01/06 01:54:21;;;;;;;20.53;15.13;;;;;;;;;;5035152;28;20435;-68
2023/01/06 01:56:52;;;;;;;18.73;14.67;;;;;;;;;;5035339;28;20446;-67
2023/01/06 01:59:20;;;;;;;19.60;14.70;;;;;;;;;;5034962;28;20839;-68
2023/01/06 02:01:48;;;;;;;20.33;14.77;;;;;;;;;;5034616;28;20442;-67
2023/01/06 02:04:18;;;;;;;19.80;14.50;;;;;;;;;;5035206;28;20453;-67
2023/01/06 02:06:47;;;;;;;19.83;15.00;;;;;;;;;;5034576;28;20443;-69
2023/01/06 02:09:16;;;;;;;25.20;14.73;;;;;;;;;;5034218;28;20476;-67
2023/01/06 02:11:46;;;;;;;24.27;14.43;;;;;;;;;;5035125;28;20563;-68
2023/01/06 02:14:14;;;;;;;17.20;14.20;;;;;;;;;;5034275;28;20473;-68
2023/01/06 02:16:50;;;;;;;19.23;14.30;;;;;;;;;;5035051;28;20439;-67
2023/01/06 02:19:30;;;;;;;19.03;12.53;;;;;;;;;;5035016;28;20517;-67
2023/01/06 02:22:10;;;;;;;25.17;14.80;;;;;;;;;;5034897;28;20865;-67
2023/01/06 02:25:01;;;;;;;14.87;11.90;;;;;;;;;;5034618;28;20441;-67
2023/01/06 02:27:36;;;;;;;17.17;12.33;;;;;;;;;;5035254;28;20557;-68
2023/01/06 02:30:22;;;;;;;19.57;11.10;;;;;;;;;;5033799;28;20916;-66
2023/01/06 02:32:55;;;;;;;13.93;10.37;;;;;;;;;;5034376;28;20451;-67
2023/01/06 02:35:37;;;;;;;12.10;9.70;;;;;;;;;;5034053;28;20451;-67
2023/01/06 02:38:08;;;;;;;12.50;8.87;;;;;;;;;;5034938;28;20773;-67
2023/01/06 02:40:44;;;;;;;12.30;8.63;;;;;;;;;;5034399;28;20543;-67
2023/01/06 02:43:16;;;;;;;10.97;7.40;;;;;;;;;;5034328;28;20528;-67
2023/01/06 02:45:48;;;;;;;11.20;7.70;;;;;;;;;;5034169;28;20437;-67
2023/01/06 02:48:22;;;;;;;11.07;6.33;;;;;;;;;;5033809;28;20466;-68
2023/01/06 02:50:52;;;;;;;13.27;5.93;;;;;;;;;;5034095;28;20426;-68
2023/01/06 02:53:21;;;;;;;8.40;5.70;;;;;;;;;;5034609;28;20424;-68
2023/01/06 02:55:49;;;;;;;7.47;5.50;;;;;;;;;;5033867;28;20530;-67
2023/01/06 02:58:20;;;;;;;8.53;4.93;;;;;;;;;;5033938;28;20442;-68
2023/01/06 03:00:50;;;;;;;5.97;5.40;;;;;;;;;;5033973;28;20839;-68
2023/01/06 03:03:21;;;;;;;8.30;4.97;;;;;;;;;;5034306;28;20514;-68
2023/01/06 03:05:51;;;;;;;10.17;4.53;;;;;;;;;;5033914;28;20440;-68
2023/01/06 03:08:20;;;;;;;10.00;4.87;;;;;;;;;;5033770;28;20496;-67
2023/01/06 03:10:49;;;;;;;6.53;4.30;;;;;;;;;;5033559;28;20486;-68
2023/01/06 03:13:18;;;;;;;6.10;4.63;;;;;;;;;;5033741;28;20565;-67
2023/01/06 03:15:45;;;;;;;9.30;3.87;;;;;;;;;;5033779;28;20435;-67
2023/01/06 03:18:12;;;;;;;7.70;3.37;;;;;;;;;;5034351;28;20456;-68
2023/01/06 03:20:41;;;;;;;5.60;4.43;;;;;;;;;;5033225;28;20450;-67
2023/01/06 03:23:08;;;;;;;7.00;3.50;;;;;;;;;;5033729;28;20462;-67
2023/01/06 03:25:35;;;;;;;6.03;3.47;;;;;;;;;;5033687;28;20447;-68
2023/01/06 03:28:02;;;;;;;5.97;3.33;;;;;;;;;;5033489;28;20475;-68
2023/01/06 03:30:35;;;;;;;5.00;3.87;;;;;;;;;;5033759;28;20447;-67
2023/01/06 03:33:05;;;;;;;4.70;3.10;;;;;;;;;;5034205;28;20433;-67
2023/01/06 03:35:39;;;;;;;4.77;4.03;;;;;;;;;;5033519;28;20447;-67
2023/01/06 03:38:12;;;;;;;5.27;3.30;;;;;;;;;;5033606;28;20432;-67
2023/01/06 03:40:41;;;;;;;8.97;3.77;;;;;;;;;;5033607;28;20463;-67
2023/01/06 03:43:10;;;;;;;4.20;3.00;;;;;;;;;;5034991;28;20511;-67
2023/01/06 03:45:40;;;;;;;15.10;4.73;;;;;;;;;;5037184;28;20443;-67
2023/01/06 03:48:11;;;;;;;5.93;3.80;;;;;;;;;;5037457;28;20824;-67
2023/01/06 03:50:41;;;;;;;9.33;4.90;;;;;;;;;;5037415;28;20923;-66
2023/01/06 03:53:14;;;;;;;3.47;3.10;;;;;;;;;;5052038;28;20436;-67
2023/01/06 03:55:42;;;;;;;9.07;3.30;;;;;;;;;;5057283;28;20454;-67
2023/01/06 03:58:10;;;;;;;5.63;3.20;;;;;;;;;;5057114;28;20451;-68
2023/01/06 04:00:37;;;;;;;6.30;3.10;;;;;;;;;;5057492;28;20442;-68
2023/01/06 04:03:08;;;;;;;6.53;3.40;;;;;;;;;;5056756;28;20538;-67
2023/01/06 04:05:35;;;;;;;5.40;3.93;;;;;;;;;;5056974;28;20421;-68
2023/01/06 04:08:02;;;;;;;3.93;2.73;;;;;;;;;;5056969;28;20971;-68
2023/01/06 04:10:31;;;;;;;3.93;2.77;;;;;;;;;;5056782;28;20473;-67
2023/01/06 04:12:57;;;;;;;5.40;2.90;;;;;;;;;;5057037;28;20449;-67
2023/01/06 04:15:26;;;;;;;5.43;3.17;;;;;;;;;;5056768;28;20446;-67
2023/01/06 04:17:54;;;;;;;5.17;2.70;;;;;;;;;;5056568;28;20465;-67
2023/01/06 04:20:24;;;;;;;6.33;2.80;;;;;;;;;;5056376;28;20457;-68
2023/01/06 04:22:53;;;;;;;5.03;2.60;;;;;;;;;;5056643;28;20441;-68
2023/01/06 04:25:20;;;;;;;5.43;2.40;;;;;;;;;;5056592;28;20464;-67
2023/01/06 04:27:49;;;;;;;6.90;2.60;;;;;;;;;;5057039;28;20800;-67
2023/01/06 04:30:16;;;;;;;4.23;2.50;;;;;;;;;;5056291;28;20568;-66
2023/01/06 04:32:43;;;;;;;2.00;1.80;;;;;;;;;;5056261;28;20949;-66
2023/01/06 04:35:11;;;;;;;4.27;2.10;;;;;;;;;;5056413;28;20769;-66
2023/01/06 04:37:38;;;;;;;2.60;2.13;;;;;;;;;;5056162;28;20434;-66
2023/01/06 04:40:06;;;;;;;3.00;2.40;;;;;;;;;;5055967;28;20453;-66
2023/01/06 04:43:03;;;;;;;5.20;2.30;;;;;;;;;;5056393;28;20544;-66
2023/01/06 04:45:22;;;;;;;3.13;2.53;;;;;;;;;;5040170;28;20436;-66
2023/01/06 04:47:50;;;;;;;2.83;2.10;;;;;;;;;;5035724;28;20941;-67
2023/01/06 04:50:17;;;;;;;7.37;3.23;;;;;;;;;;5036517;28;20449;-67
2023/01/06 04:52:44;;;;;;;5.33;2.37;;;;;;;;;;5036314;28;20796;-66
2023/01/06 04:55:11;;;;;;;4.07;2.60;;;;;;;;;;5036189;28;20455;-66
2023/01/06 04:57:38;;;;;;;5.00;2.57;;;;;;;;;;5035987;28;20443;-66
2023/01/06 05:00:06;;;;;;;3.73;1.93;;;;;;;;;;5035610;28;20451;-66
2023/01/06 05:02:35;;;;;;;4.10;2.20;;;;;;;;;;5035799;28;20453;-66
2023/01/06 05:05:02;;;;;;;2.90;2.17;;;;;;;;;;5035894;28;20443;-66
2023/01/06 05:07:30;;;;;;;8.63;2.67;;;;;;;;;;5035969;28;20451;-66
2023/01/06 05:09:57;;;;;;;7.53;4.00;;;;;;;;;;5035315;28;20509;-66
2023/01/06 05:12:24;;;;;;;3.23;2.10;;;;;;;;;;5035583;28;20425;-66
2023/01/06 05:14:51;;;;;;;5.07;2.53;;;;;;;;;;5035394;28;20443;-66
2023/01/06 05:17:18;;;;;;;6.90;2.30;;;;;;;;;;5035341;28;20537;-67
2023/01/06 05:19:47;;;;;;;2.70;2.30;;;;;;;;;;5035801;28;20456;-67
2023/01/06 05:22:14;;;;;;;8.90;2.40;;;;;;;;;;5035568;28;20453;-66
2023/01/06 05:24:41;;;;;;;2.23;1.70;;;;;;;;;;5034889;28;20942;-67
2023/01/06 05:27:09;;;;;;;2.33;2.13;;;;;;;;;;5034937;28;20943;-67
2023/01/06 05:29:36;;;;;;;3.43;1.80;;;;;;;;;;5035047;28;20487;-66
2023/01/06 05:32:03;;;;;;;4.00;1.80;;;;;;;;;;5035266;28;20442;-67
2023/01/06 05:34:30;;;;;;;6.13;1.90;;;;;;;;;;5035256;28;20498;-66
2023/01/06 05:36:59;;;;;;;4.63;1.97;;;;;;;;;;5035711;28;20910;-66
2023/01/06 05:39:26;;;;;;;6.23;1.90;;;;;;;;;;5035290;28;20805;-66
2023/01/06 05:41:53;;;;;;;2.93;1.87;;;;;;;;;;5035058;28;20440;-67
2023/01/06 05:44:20;;;;;;;3.57;1.97;;;;;;;;;;5035201;28;20444;-66
2023/01/06 05:46:48;;;;;;;3.50;2.57;;;;;;;;;;5035237;28;20435;-66
2023/01/06 05:49:15;;;;;;;3.60;2.20;;;;;;;;;;5035255;28;20471;-66
2023/01/06 05:51:42;;;;;;;3.30;1.90;;;;;;;;;;5035012;28;20448;-66
2023/01/06 05:54:11;;;;;;;3.87;1.97;;;;;;;;;;5034825;28;20448;-66
2023/01/06 05:56:38;;;;;;;3.87;2.00;;;;;;;;;;5034891;28;20952;-66
2023/01/06 05:59:05;;;;;;;4.10;2.00;;;;;;;;;;5034590;28;20452;-66
2023/01/06 06:01:32;;;;;;;2.60;1.67;;;;;;;;;;5034472;28;20451;-66
2023/01/06 06:04:00;;;;;;;4.20;2.10;;;;;;;;;;5034519;28;20457;-66
2023/01/06 06:06:28;;;;;;;1.60;1.50;;;;;;;;;;5033959;28;20449;-67
2023/01/06 06:08:55;;;;;;;3.03;1.50;;;;;;;;;;5034695;28;20593;-66
2023/01/06 06:11:24;;;;;;;3.40;1.80;;;;;;;;;;5034575;28;20485;-68
2023/01/06 06:13:52;;;;;;;1.93;1.83;;;;;;;;;;5034338;28;20948;-64
2023/01/06 06:16:20;;;;;;;5.47;2.30;;;;;;;;;;5034688;28;20447;-64
2023/01/06 06:18:49;;;;;;;4.13;2.13;;;;;;;;;;5034532;28;20443;-64
2023/01/06 06:21:19;;;;;;;5.50;2.40;;;;;;;;;;5034539;28;20444;-64
2023/01/06 06:23:46;;;;;;;2.40;2.20;;;;;;;;;;5034519;28;20441;-64
2023/01/06 06:26:13;;;;;;;2.43;1.83;;;;;;;;;;5034560;28;20534;-64
2023/01/06 06:28:42;;;;;;;3.77;2.10;;;;;;;;;;5034304;28;20490;-64
2023/01/06 06:31:10;;;;;;;6.70;2.30;;;;;;;;;;5034747;28;20455;-64
2023/01/06 06:33:37;;;;;;;4.27;2.40;;;;;;;;;;5034297;28;20450;-64
2023/01/06 06:36:06;;;;;;;3.03;2.50;;;;;;;;;;5034199;28;20454;-64
2023/01/06 06:38:33;;;;;;;2.00;1.90;;;;;;;;;;5034371;28;20802;-64
2023/01/06 06:41:00;;;;;;;3.83;2.90;;;;;;;;;;5034109;28;20453;-64
2023/01/06 06:43:28;;;;;;;3.73;2.13;;;;;;;;;;5033851;28;21002;-64
2023/01/06 06:45:56;;;;;;;3.40;2.90;;;;;;;;;;5034749;28;20443;-64
2023/01/06 06:48:23;;;;;;;2.77;2.40;;;;;;;;;;5033786;28;20478;-64
2023/01/06 06:50:56;;;;;;;6.37;2.83;;;;;;;;;;5033981;28;20443;-64
2023/01/06 06:53:23;;;;;;;6.40;2.80;;;;;;;;;;5033616;28;20424;-64
2023/01/06 06:55:51;;;;;;;4.30;2.63;;;;;;;;;;5033957;28;20450;-64
2023/01/06 06:58:18;;;;;;;4.60;2.83;;;;;;;;;;5033486;28;20445;-64
2023/01/06 07:00:45;;;;;;;2.77;2.53;;;;;;;;;;5034063;28;20448;-64
2023/01/06 07:03:14;;;;;;;4.00;2.40;;;;;;;;;;5033507;28;20451;-64
2023/01/06 07:05:42;;;;;;;4.80;2.93;;;;;;;;;;5034148;28;20447;-64
2023/01/06 07:08:09;;;;;;;3.13;2.87;;;;;;;;;;5033430;28;20477;-64
2023/01/06 07:10:37;;;;;;;6.03;2.97;;;;;;;;;;5033529;28;20908;-64
2023/01/06 07:13:04;;;;;;;5.27;3.13;;;;;;;;;;5033722;28;20882;-64
2023/01/06 07:15:31;;;;;;;6.50;2.80;;;;;;;;;;5033464;28;20445;-64
2023/01/06 07:18:00;;;;;;;3.90;3.33;;;;;;;;;;5032435;28;20548;-64
2023/01/06 07:20:29;;;;;;;3.63;2.53;;;;;;;;;;5033706;28;20444;-64
2023/01/06 07:22:56;;;;;;;8.90;3.40;;;;;;;;;;5033558;28;20470;-64
2023/01/06 07:25:24;;;;;;;3.20;3.00;;;;;;;;;;5033563;28;20445;-64
2023/01/06 07:27:54;;;;;;;7.93;2.90;;;;;;;;;;5033116;28;20452;-64
2023/01/06 07:30:22;;;;;;;4.43;2.80;;;;;;;;;;5033499;28;20471;-64
2023/01/06 07:32:49;;;;;;;4.50;3.10;;;;;;;;;;5033856;28;20452;-64
2023/01/06 07:35:17;;;;;;;6.07;3.50;;;;;;;;;;5033582;28;20444;-64
2023/01/06 07:37:45;;;;;;;4.00;3.33;;;;;;;;;;5032986;28;20925;-65
2023/01/06 07:40:13;;;;;;;3.10;2.80;;;;;;;;;;5033922;28;20496;-64
2023/01/06 07:42:41;;;;;;;2.97;2.70;;;;;;;;;;5033202;28;20463;-64
2023/01/06 07:45:08;;;;;;;4.60;3.17;;;;;;;;;;5033412;28;20803;-64
2023/01/06 07:47:36;;;;;;;6.10;2.30;;;;;;;;;;5033484;28;20475;-64
2023/01/06 07:50:03;;;;;;;5.97;2.60;;;;;;;;;;5033262;28;20476;-64
2023/01/06 07:52:30;;;;;;;2.70;2.50;;;;;;;;;;5033595;28;20444;-64
2023/01/06 07:54:59;;;;;;;2.30;2.10;;;;;;;;;;5033216;28;20441;-64
2023/01/06 07:57:26;;;;;;;3.33;2.40;;;;;;;;;;5032972;28;20444;-64
2023/01/06 07:59:53;;;;;;;3.27;2.13;;;;;;;;;;5033154;28;20443;-64
2023/01/06 08:02:21;;;;;;;2.37;2.10;;;;;;;;;;5033317;28;20475;-64
2023/01/06 08:04:48;;;;;;;2.97;2.40;;;;;;;;;;5033166;28;20445;-64
2023/01/06 08:07:16;;;;;;;3.20;2.60;;;;;;;;;;5033299;28;20539;-64
2023/01/06 08:09:43;;;;;;;3.47;3.17;;;;;;;;;;5032487;28;20508;-64
2023/01/06 08:12:12;;;;;;;3.60;2.60;;;;;;;;;;5032793;28;20438;-64
2023/01/06 08:14:39;;;;;;;3.37;2.60;;;;;;;;;;5032666;28;20435;-64
2023/01/06 08:17:06;;;;;;;3.07;2.67;;;;;;;;;;5032755;28;20453;-64
2023/01/06 08:19:33;;;;;;;4.20;2.50;;;;;;;;;;5032625;28;20910;-64
2023/01/06 08:22:01;;;;;;;2.70;2.50;;;;;;;;;;5033373;28;20455;-64
2023/01/06 08:24:29;;;;;;;2.43;2.23;;;;;;;;;;5032847;28;20447;-64
2023/01/06 08:26:56;;;;;;;4.27;2.83;;;;;;;;;;5033178;28;20432;-64
2023/01/06 08:29:25;;;;;;;5.20;2.50;;;;;;;;;;5034589;28;20539;-64
2023/01/06 08:31:52;;;;;;;2.53;2.43;;;;;;;;;;5036583;28;20473;-64
2023/01/06 08:34:20;;;;;;;2.50;2.40;;;;;;;;;;5036498;28;20445;-64
2023/01/06 08:36:47;;;;;;;2.80;2.60;;;;;;;;;;5036530;28;20530;-64
2023/01/06 08:39:15;;;;;;;2.93;2.37;;;;;;;;;;5036302;28;20863;-64
2023/01/06 08:41:42;;;;;;;2.60;2.43;;;;;;;;;;5036539;28;20800;-64
2023/01/06 08:44:09;;;;;;;3.20;2.50;;;;;;;;;;5036476;28;20455;-64
2023/01/06 08:46:38;;;;;;;2.80;2.60;;;;;;;;;;5036285;28;20455;-64
2023/01/06 08:49:05;;;;;;;2.47;2.27;;;;;;;;;;5036090;28;20439;-64
2023/01/06 08:51:33;;;;;;;5.30;2.60;;;;;;;;;;5036287;28;20443;-64
2023/01/06 08:54:01;;;;;;;3.17;2.80;;;;;;;;;;5035781;28;20952;-64
2023/01/06 08:56:30;;;;;;;4.07;2.83;;;;;;;;;;5036153;28;20443;-64
2023/01/06 08:58:58;;;;;;;2.90;2.40;;;;;;;;;;5036024;28;20597;-64
2023/01/06 09:01:27;;;;;;;2.70;2.50;;;;;;;;;;5036258;28;20541;-64
2023/01/06 09:03:55;;;;;;;2.57;2.40;;;;;;;;;;5035134;28;20448;-65
2023/01/06 09:06:22;;;;;;;2.73;2.50;;;;;;;;;;5036135;28;20444;-64
2023/01/06 09:08:50;;;;;;;2.83;2.63;;;;;;;;;;5035720;28;20534;-64
2023/01/06 09:11:17;;;;;;;6.80;3.23;;;;;;;;;;5035774;28;20595;-64
2023/01/06 09:13:45;;;;;;;3.13;2.67;;;;;;;;;;5035879;28;20442;-64
2023/01/06 09:16:13;;;;;;;4.20;2.67;;;;;;;;;;5035503;28;20451;-64
2023/01/06 09:18:43;;;;;;;5.57;3.37;;;;;;;;;;5035517;28;20451;-64
2023/01/06 09:21:12;;;;;;;3.30;2.80;;;;;;;;;;5035451;28;20484;-64
2023/01/06 09:23:39;;;;;;;5.97;3.17;;;;;;;;;;5035765;28;20465;-64
2023/01/06 09:26:06;;;;;;;3.30;3.00;;;;;;;;;;5035250;28;20475;-64
2023/01/06 09:28:33;;;;;;;3.53;3.33;;;;;;;;;;5035331;28;20443;-64
2023/01/06 09:31:01;;;;;;;7.93;3.47;;;;;;;;;;5035143;28;20469;-64
2023/01/06 09:33:28;;;;;;;6.70;3.37;;;;;;;;;;5035207;28;20506;-64
2023/01/06 09:35:55;;;;;;;4.60;4.20;;;;;;;;;;5035101;28;20528;-64
2023/01/06 09:38:25;;;;;;;4.67;4.37;;;;;;;;;;5035427;28;20443;-64
2023/01/06 09:40:59;;;;;;;7.10;3.90;;;;;;;;;;5034369;28;20458;-64
2023/01/06 09:43:31;;;;;;;4.97;4.50;;;;;;;;;;5035357;28;20788;-64
2023/01/06 09:46:01;;;;;;;6.97;4.60;;;;;;;;;;5035544;28;20458;-64
2023/01/06 09:48:30;;;;;;;4.73;4.33;;;;;;;;;;5035295;28;20441;-64
2023/01/06 09:51:00;;;;;;;5.70;4.40;;;;;;;;;;5035046;28;20478;-64
2023/01/06 09:53:30;;;;;;;4.87;4.30;;;;;;;;;;5034884;28;20437;-64
2023/01/06 09:56:01;;;;;;;3.83;3.53;;;;;;;;;;5035088;28;20481;-64
2023/01/06 09:58:33;;;;;;;4.90;3.63;;;;;;;;;;5035117;28;20431;-64
2023/01/06 10:01:02;;;;;;;7.30;3.93;;;;;;;;;;5035068;28;20532;-64
2023/01/06 10:03:30;;;;;;;4.13;3.73;;;;;;;;;;5035001;28;20441;-63
2023/01/06 10:06:04;;;;;;;4.33;3.90;;;;;;;;;;5034502;28;20444;-64
2023/01/06 10:08:38;;;;;;;3.97;3.60;;;;;;;;;;5035310;28;20510;-64
2023/01/06 10:11:10;;;;;;;3.80;3.50;;;;;;;;;;5034728;28;20513;-64
2023/01/06 10:13:45;;;;;;;3.87;3.57;;;;;;;;;;5035138;28;20816;-63
2023/01/06 10:16:17;;;;;;;3.17;2.97;;;;;;;;;;5034645;28;20477;-63
2023/01/06 10:18:48;;;;;;;3.80;3.40;;;;;;;;;;5034463;28;20432;-63
2023/01/06 10:21:18;;;;;;;4.73;3.63;;;;;;;;;;5034633;28;20432;-63
2023/01/06 10:23:53;;;;;;;3.07;2.87;;;;;;;;;;5034666;28;20442;-63
2023/01/06 10:26:26;;;;;;;5.07;2.97;;;;;;;;;;5034557;28;20462;-63
2023/01/06 10:28:55;;;;;;;3.00;2.70;;;;;;;;;;5035196;28;20436;-63
2023/01/06 10:31:24;;;;;;;3.23;2.60;;;;;;;;;;5034471;28;20469;-63
2023/01/06 10:33:52;;;;;;;3.63;3.10;;;;;;;;;;5034697;28;20523;-63
2023/01/06 10:36:21;;;;;;;4.33;4.00;;;;;;;;;;5034165;28;20523;-63
2023/01/06 10:38:51;;;;;;;3.77;3.30;;;;;;;;;;5033965;28;20519;-63
2023/01/06 10:41:23;;;;;;;3.50;3.20;;;;;;;;;;5034064;28;20460;-64
2023/01/06 10:43:50;;;;;;;3.57;3.30;;;;;;;;;;5034465;28;20444;-63
2023/01/06 10:46:18;;;;;;;3.60;2.87;;;;;;;;;;5034026;28;20448;-63
2023/01/06 10:48:46;;;;;;;2.70;2.30;;;;;;;;;;5033687;28;20453;-63
2023/01/06 10:51:30;;;;;;;4.27;3.13;;;;;;;;;;5033703;28;20479;-63
2023/01/06 10:54:01;;;;;;;3.10;2.90;;;;;;;;;;5034449;28;20433;-63
2023/01/06 10:56:29;;;;;;;3.40;3.10;;;;;;;;;;5033691;28;20952;-64
2023/01/06 10:59:00;;;;;;;3.00;2.80;;;;;;;;;;5033993;28;20833;-64
2023/01/06 11:01:28;;;;;;;3.60;3.23;;;;;;;;;;5033971;28;20481;-63
2023/01/06 11:04:06;;;;;;;3.50;3.20;;;;;;;;;;5033583;28;20921;-64
2023/01/06 11:06:34;;;;;;;3.60;3.30;;;;;;;;;;5034220;28;20431;-64
2023/01/06 11:09:09;;;;;;;4.63;3.60;;;;;;;;;;5033701;28;20482;-64
2023/01/06 11:11:46;;;;;;;4.00;3.13;;;;;;;;;;5033839;28;20577;-63
2023/01/06 11:14:15;;;;;;;5.40;3.13;;;;;;;;;;5033444;28;20467;-64
2023/01/06 11:16:43;;;;;;;3.73;3.43;;;;;;;;;;5033849;28;20538;-64
2023/01/06 11:19:23;;;;;;;6.27;3.80;;;;;;;;;;5033661;28;20443;-63
2023/01/06 11:21:50;;;;;;;3.73;3.40;;;;;;;;;;5033544;28;20428;-65
2023/01/06 11:24:20;;;;;;;3.53;3.33;;;;;;;;;;5033641;28;20956;-64
2023/01/06 11:26:52;;;;;;;4.10;3.53;;;;;;;;;;5033327;28;20439;-64
2023/01/06 11:29:24;;;;;;;4.07;3.77;;;;;;;;;;5033236;28;20434;-64
2023/01/06 11:31:51;;;;;;;3.73;3.30;;;;;;;;;;5033677;28;20828;-64
2023/01/06 11:34:22;;;;;;;3.40;3.10;;;;;;;;;;5033240;28;20921;-64
2023/01/06 11:36:50;;;;;;;4.47;3.90;;;;;;;;;;5033353;28;20441;-64
2023/01/06 11:39:22;;;;;;;5.03;3.53;;;;;;;;;;5033254;28;20461;-64
2023/01/06 11:41:52;;;;;;;4.17;3.87;;;;;;;;;;5033684;28;20463;-64
2023/01/06 11:44:21;;;;;;;4.27;3.90;;;;;;;;;;5033404;28;20522;-64
2023/01/06 11:46:51;;;;;;;4.03;3.63;;;;;;;;;;5033257;28;20534;-64
2023/01/06 11:49:21;;;;;;;4.53;3.53;;;;;;;;;;5033322;28;20447;-64
2023/01/06 11:51:48;;;;;;;4.70;3.90;;;;;;;;;;5033797;28;20477;-64
2023/01/06 11:54:28;;;;;;;4.33;3.90;;;;;;;;;;5032925;28;20919;-63
2023/01/06 11:57:03;;;;;;;3.90;3.60;;;;;;;;;;5033603;28;20498;-64
2023/01/06 11:59:39;;;;;;;4.50;4.10;;;;;;;;;;5033522;28;20485;-64
2023/01/06 12:02:12;;;;;;;4.87;4.17;;;;;;;;;;5033234;28;20444;-64
2023/01/06 12:04:42;;;;;;;5.53;4.33;;;;;;;;;;5036269;28;20433;-64
2023/01/06 12:07:14;;;;;;;6.13;3.63;;;;;;;;;;5036604;28;20511;-64
2023/01/06 12:09:45;;;;;;;4.83;4.43;;;;;;;;;;5036611;28;20455;-64
2023/01/06 12:12:20;;;;;;;4.40;3.67;;;;;;;;;;5037142;28;20957;-64
2023/01/06 12:14:48;;;;;;;3.97;3.57;;;;;;;;;;5037137;28;20836;-64
2023/01/06 12:17:18;;;;;;;4.90;3.70;;;;;;;;;;5036815;28;20436;-64
2023/01/06 12:19:48;;;;;;;4.20;3.70;;;;;;;;;;5036583;28;20449;-64
2023/01/06 12:22:20;;;;;;;4.17;3.77;;;;;;;;;;5036806;28;20455;-64
2023/01/06 12:24:49;;;;;;;4.03;3.73;;;;;;;;;;5037579;28;20436;-64
2023/01/06 12:27:21;;;;;;;4.47;4.07;;;;;;;;;;5036586;28;20439;-64
2023/01/06 12:29:49;;;;;;;7.27;3.07;;;;;;;;;;5037070;28;20439;-64
2023/01/06 12:32:19;;;;;;;5.40;4.50;;;;;;;;;;5036127;28;20483;-64
2023/01/06 12:34:49;;;;;;;5.20;3.13;;;;;;;;;;5036279;28;20449;-64
2023/01/06 12:37:20;;;;;;;4.00;3.57;;;;;;;;;;5036319;28;20440;-64
2023/01/06 12:39:52;;;;;;;3.40;3.10;;;;;;;;;;5036936;28;20464;-64
2023/01/06 12:42:23;;;;;;;5.20;3.20;;;;;;;;;;5036751;28;20478;-64
2023/01/06 12:44:52;;;;;;;5.70;3.20;;;;;;;;;;5036065;28;20457;-64
2023/01/06 12:47:23;;;;;;;3.57;3.20;;;;;;;;;;5035929;28;20560;-64
2023/01/06 12:49:54;;;;;;;3.73;2.80;;;;;;;;;;5036125;28;20924;-64
2023/01/06 12:52:24;;;;;;;3.13;2.93;;;;;;;;;;5035756;28;20567;-64
2023/01/06 12:54:53;;;;;;;7.07;3.10;;;;;;;;;;5036057;28;20443;-64
2023/01/06 12:57:30;;;;;;;3.63;3.30;;;;;;;;;;5036017;28;20974;-64
2023/01/06 13:00:04;;;;;;;4.20;3.73;;;;;;;;;;5036396;28;20453;-64
2023/01/06 13:02:40;;;;;;;3.20;2.70;;;;;;;;;;5036085;28;20494;-64
2023/01/06 13:05:30;;;;;;;13.20;3.10;;;;;;;;;;5035687;28;20474;-64
2023/01/06 13:08:03;;;;;;;4.10;3.53;;;;;;;;;;5036259;28;20443;-64
2023/01/06 13:10:35;;;;;;;5.57;2.93;;;;;;;;;;5035638;28;20481;-64
2023/01/06 13:13:23;;;;;;;5.30;3.50;;;;;;;;;;5035983;28;20472;-64
2023/01/06 13:15:51;;;;;;;3.20;3.00;;;;;;;;;;5034350;28;20438;-64
2023/01/06 13:18:21;;;;;;;4.20;3.40;;;;;;;;;;5035371;28;20450;-64
2023/01/06 13:20:49;;;;;;;6.07;3.20;;;;;;;;;;5035559;28;20926;-64
2023/01/06 13:23:24;;;;;;;6.73;4.67;;;;;;;;;;5035544;28;20524;-64
2023/01/06 13:26:05;;;;;;;6.10;4.30;;;;;;;;;;5035976;28;20431;-64
2023/01/06 13:28:40;;;;;;;7.57;3.80;;;;;;;;;;5035542;28;20449;-64
2023/01/06 13:31:22;;;;;;;4.23;3.83;;;;;;;;;;5035952;28;20540;-64
2023/01/06 13:34:04;;;;;;;5.50;3.77;;;;;;;;;;5035459;28;20429;-68
2023/01/06 13:36:46;;;;;;;4.50;3.23;;;;;;;;;;5027104;28;20466;-64
2023/01/06 13:39:14;;;;;;;4.70;3.50;;;;;;;;;;5033565;28;20468;-64
2023/01/06 13:41:45;;;;;;;4.80;3.63;;;;;;;;;;5035388;28;20590;-65
2023/01/06 13:44:15;;;;;;;6.13;3.83;;;;;;;;;;5035236;28;20523;-64
2023/01/06 13:46:42;;;;;;;7.90;4.37;;;;;;;;;;5035335;28;20439;-65
2023/01/06 13:49:11;;;;;;;8.13;3.60;;;;;;;;;;5035338;28;20440;-65
2023/01/06 13:51:40;;;;;;;9.43;4.20;;;;;;;;;;5047553;28;20496;-64
2023/01/06 13:54:07;;;;;;;7.23;5.20;;;;;;;;;;5038011;28;20559;-65
2023/01/06 13:56:35;;;;;;;11.90;6.77;;;;;;;;;;5034476;28;20475;-65
2023/01/06 13:59:22;;;;;;;10.53;6.03;;;;;;;;;;5034593;28;20974;-65
2023/01/06 14:01:50;;;;;;;6.33;4.37;;;;;;;;;;5035058;28;20441;-65
2023/01/06 14:04:38;;;;;;;13.30;7.90;;;;;;;;;;5034785;28;20436;-65
2023/01/06 14:07:05;;;;;;;7.90;4.70;;;;;;;;;;5034837;28;20440;-65
2023/01/06 14:09:34;;;;;;;6.13;4.10;;;;;;;;;;5034873;28;20454;-65
2023/01/06 14:12:08;;;;;;;8.50;4.80;;;;;;;;;;5034644;28;20812;-65
2023/01/06 14:14:37;;;;;;;9.77;6.00;;;;;;;;;;5034587;28;20444;-65
2023/01/06 14:17:05;;;;;;;7.23;4.00;;;;;;;;;;5034309;28;20546;-65
2023/01/06 14:19:34;;;;;;;10.00;4.33;;;;;;;;;;5034675;28;20816;-65
2023/01/06 14:22:13;;;;;;;11.30;4.10;;;;;;;;;;5034406;28;20452;-65
2023/01/06 14:24:42;;;;;;;5.53;4.33;;;;;;;;;;5014256;28;20439;-65
2023/01/06 14:27:12;;;;;;;8.20;4.27;;;;;;;;;;5013856;28;20460;-65
2023/01/06 14:29:48;;;;;;;4.73;3.60;;;;;;;;;;5014470;28;20791;-65
2023/01/06 14:32:48;;;;;;;5.37;3.80;;;;;;;;;;5014711;28;20721;-65
2023/01/06 14:35:20;;;;;;;6.77;4.93;;;;;;;;;;4934613;29;20444;-65
2023/01/06 14:37:49;;;;;;;5.40;3.67;;;;;;;;;;4972615;28;20445;-65
2023/01/06 14:40:18;;;;;;;5.73;3.47;;;;;;;;;;5014048;28;20496;-65
2023/01/06 14:42:47;;;;;;;5.43;3.80;;;;;;;;;;5014089;28;20552;-65
2023/01/06 14:45:19;;;;;;;3.97;3.57;;;;;;;;;;5014283;28;20527;-65
2023/01/06 14:47:48;;;;;;;7.90;5.03;;;;;;;;;;5014276;28;20460;-65
2023/01/06 14:50:16;;;;;;;6.50;4.40;;;;;;;;;;5013857;28;20453;-65
2023/01/06 14:52:48;;;;;;;6.47;4.13;;;;;;;;;;5017796;28;21043;-65
2023/01/06 14:55:17;;;;;;;7.00;5.20;;;;;;;;;;5033489;28;20436;-65